sensor_id;sensor_type;location;lat;lon;timestamp;temperature;humidity
36322;DHT22;23564;48.290;11.460;2023-05-24T00:00:41;13.60;99.90
36322;DHT22;23564;48.290;11.460;2023-05-24T00:03:07;13.50;99.90
36322;DHT22;23564;48.290;11.460;2023-05-24T00:05:33;13.50;99.90
36322;DHT22;23564;48.290;11.460;2023-05-24T00:08:02;13.40;99.90
36322;DHT22;23564;48.290;11.460;2023-05-24T00:10:28;13.50;99.90
36322;DHT22;23564;48.290;11.460;2023-05-24T00:12:53;13.50;99.90
36322;DHT22;23564;48.290;11.460;2023-05-24T00:15:19;13.40;99.90
36322;DHT22;23564;48.290;11.460;2023-05-24T00:17:45;13.50;99.90
36322;DHT22;23564;48.290;11.460;2023-05-24T00:20:11;13.50;99.90
36322;DHT22;23564;48.290;11.460;2023-05-24T00:22:38;13.50;99.90
36322;DHT22;23564;48.290;11.460;2023-05-24T00:25:04;13.50;99.90
36322;DHT22;23564;48.290;11.460;2023-05-24T00:27:30;13.60;99.90
36322;DHT22;23564;48.290;11.460;2023-05-24T00:29:56;13.60;99.90
36322;DHT22;23564;48.290;11.460;2023-05-24T00:32:21;13.60;99.90
36322;DHT22;23564;48.290;11.460;2023-05-24T00:34:47;13.50;99.90
36322;DHT22;23564;48.290;11.460;2023-05-24T00:37:12;13.50;99.90
36322;DHT22;23564;48.290;11.460;2023-05-24T00:39:38;13.50;99.90
36322;DHT22;23564;48.290;11.460;2023-05-24T00:42:04;13.50;99.90
36322;DHT22;23564;48.290;11.460;2023-05-24T00:44:30;13.60;99.90
36322;DHT22;23564;48.290;11.460;2023-05-24T00:46:56;13.50;99.90
36322;DHT22;23564;48.290;11.460;2023-05-24T00:49:22;13.50;99.90
36322;DHT22;23564;48.290;11.460;2023-05-24T00:51:49;13.50;99.90
36322;DHT22;23564;48.290;11.460;2023-05-24T00:54:15;13.50;99.90
36322;DHT22;23564;48.290;11.460;2023-05-24T00:56:42;13.50;99.90
36322;DHT22;23564;48.290;11.460;2023-05-24T00:59:08;13.50;99.90
36322;DHT22;23564;48.290;11.460;2023-05-24T01:01:33;13.50;99.90
36322;DHT22;23564;48.290;11.460;2023-05-24T01:03:59;13.60;99.90
36322;DHT22;23564;48.290;11.460;2023-05-24T01:06:26;13.60;99.90
36322;DHT22;23564;48.290;11.460;2023-05-24T01:14:29;13.50;99.90
36322;DHT22;23564;48.290;11.460;2023-05-24T01:17:18;13.60;99.90
36322;DHT22;23564;48.290;11.460;2023-05-24T01:19:56;13.60;99.90
36322;DHT22;23564;48.290;11.460;2023-05-24T01:22:48;13.50;99.90
36322;DHT22;23564;48.290;11.460;2023-05-24T01:28:04;13.60;99.90
36322;DHT22;23564;48.290;11.460;2023-05-24T01:30:30;13.60;99.90
36322;DHT22;23564;48.290;11.460;2023-05-24T01:32:57;13.70;99.90
36322;DHT22;23564;48.290;11.460;2023-05-24T01:35:22;13.70;99.90
36322;DHT22;23564;48.290;11.460;2023-05-24T01:37:48;13.60;99.90
36322;DHT22;23564;48.290;11.460;2023-05-24T01:40:14;13.60;99.90
36322;DHT22;23564;48.290;11.460;2023-05-24T01:42:55;13.70;99.90
36322;DHT22;23564;48.290;11.460;2023-05-24T01:45:28;13.70;99.90
36322;DHT22;23564;48.290;11.460;2023-05-24T01:48:15;13.70;99.90
36322;DHT22;23564;48.290;11.460;2023-05-24T01:50:58;13.60;99.90
36322;DHT22;23564;48.290;11.460;2023-05-24T01:53:28;13.60;99.90
36322;DHT22;23564;48.290;11.460;2023-05-24T01:55:59;13.60;99.90
36322;DHT22;23564;48.290;11.460;2023-05-24T01:58:26;13.70;99.90
36322;DHT22;23564;48.290;11.460;2023-05-24T02:00:53;13.60;99.90
36322;DHT22;23564;48.290;11.460;2023-05-24T02:03:19;13.60;99.90
36322;DHT22;23564;48.290;11.460;2023-05-24T02:05:45;13.60;99.90
36322;DHT22;23564;48.290;11.460;2023-05-24T02:08:11;13.50;99.90
36322;DHT22;23564;48.290;11.460;2023-05-24T02:10:40;13.50;99.90
36322;DHT22;23564;48.290;11.460;2023-05-24T02:13:06;13.40;99.90
36322;DHT22;23564;48.290;11.460;2023-05-24T02:15:33;13.30;99.90
36322;DHT22;23564;48.290;11.460;2023-05-24T02:17:59;13.30;99.90
36322;DHT22;23564;48.290;11.460;2023-05-24T02:20:26;13.30;99.90
36322;DHT22;23564;48.290;11.460;2023-05-24T02:22:58;13.20;99.90
36322;DHT22;23564;48.290;11.460;2023-05-24T02:25:24;13.20;99.90
36322;DHT22;23564;48.290;11.460;2023-05-24T02:27:50;13.20;99.90
36322;DHT22;23564;48.290;11.460;2023-05-24T02:30:16;13.10;99.90
36322;DHT22;23564;48.290;11.460;2023-05-24T02:32:41;13.20;99.90
36322;DHT22;23564;48.290;11.460;2023-05-24T02:35:07;13.10;99.90
36322;DHT22;23564;48.290;11.460;2023-05-24T02:37:33;13.20;99.90
36322;DHT22;23564;48.290;11.460;2023-05-24T02:39:58;13.10;99.90
36322;DHT22;23564;48.290;11.460;2023-05-24T02:42:24;13.10;99.90
36322;DHT22;23564;48.290;11.460;2023-05-24T02:44:49;13.10;99.90
36322;DHT22;23564;48.290;11.460;2023-05-24T02:47:17;13.20;99.90
36322;DHT22;23564;48.290;11.460;2023-05-24T02:49:43;13.10;99.90
36322;DHT22;23564;48.290;11.460;2023-05-24T02:52:09;13.20;99.90
36322;DHT22;23564;48.290;11.460;2023-05-24T02:54:35;13.10;99.90
36322;DHT22;23564;48.290;11.460;2023-05-24T02:57:01;13.10;99.90
36322;DHT22;23564;48.290;11.460;2023-05-24T02:59:27;13.10;99.90
36322;DHT22;23564;48.290;11.460;2023-05-24T03:01:53;13.10;1.00
36322;DHT22;23564;48.290;11.460;2023-05-24T03:04:18;13.00;1.00
36322;DHT22;23564;48.290;11.460;2023-05-24T03:06:44;13.00;1.00
36322;DHT22;23564;48.290;11.460;2023-05-24T03:09:10;12.90;1.00
36322;DHT22;23564;48.290;11.460;2023-05-24T03:11:35;12.90;1.00
36322;DHT22;23564;48.290;11.460;2023-05-24T03:14:01;12.80;1.00
36322;DHT22;23564;48.290;11.460;2023-05-24T03:16:26;12.70;1.00
36322;DHT22;23564;48.290;11.460;2023-05-24T03:18:52;12.70;1.00
36322;DHT22;23564;48.290;11.460;2023-05-24T03:21:19;12.70;1.00
36322;DHT22;23564;48.290;11.460;2023-05-24T03:23:45;12.70;1.00
36322;DHT22;23564;48.290;11.460;2023-05-24T03:26:11;12.60;99.90
36322;DHT22;23564;48.290;11.460;2023-05-24T03:28:39;12.50;99.90
36322;DHT22;23564;48.290;11.460;2023-05-24T03:31:05;12.40;99.90
36322;DHT22;23564;48.290;11.460;2023-05-24T03:33:31;12.40;1.00
36322;DHT22;23564;48.290;11.460;2023-05-24T03:35:57;12.40;1.00
36322;DHT22;23564;48.290;11.460;2023-05-24T03:38:23;12.30;1.00
36322;DHT22;23564;48.290;11.460;2023-05-24T03:40:48;12.30;1.00
36322;DHT22;23564;48.290;11.460;2023-05-24T03:43:14;12.30;99.90
36322;DHT22;23564;48.290;11.460;2023-05-24T03:45:41;12.30;1.00
36322;DHT22;23564;48.290;11.460;2023-05-24T03:48:06;12.30;99.90
36322;DHT22;23564;48.290;11.460;2023-05-24T03:50:32;12.30;99.90
36322;DHT22;23564;48.290;11.460;2023-05-24T03:52:57;12.20;99.90
36322;DHT22;23564;48.290;11.460;2023-05-24T03:55:23;12.20;99.90
36322;DHT22;23564;48.290;11.460;2023-05-24T03:57:48;12.10;99.90
36322;DHT22;23564;48.290;11.460;2023-05-24T04:00:14;12.10;1.00
36322;DHT22;23564;48.290;11.460;2023-05-24T04:02:40;12.10;99.90
36322;DHT22;23564;48.290;11.460;2023-05-24T04:05:06;12.10;99.90
36322;DHT22;23564;48.290;11.460;2023-05-24T04:07:35;12.10;99.90
36322;DHT22;23564;48.290;11.460;2023-05-24T04:10:02;12.10;99.90
36322;DHT22;23564;48.290;11.460;2023-05-24T04:12:27;12.10;99.90
36322;DHT22;23564;48.290;11.460;2023-05-24T04:14:53;12.00;99.90
36322;DHT22;23564;48.290;11.460;2023-05-24T04:17:19;12.00;99.90
36322;DHT22;23564;48.290;11.460;2023-05-24T04:19:44;12.00;99.90
36322;DHT22;23564;48.290;11.460;2023-05-24T04:22:11;12.10;99.90
36322;DHT22;23564;48.290;11.460;2023-05-24T04:24:36;12.10;99.90
36322;DHT22;23564;48.290;11.460;2023-05-24T04:27:02;12.10;99.90
36322;DHT22;23564;48.290;11.460;2023-05-24T04:29:28;12.10;99.90
36322;DHT22;23564;48.290;11.460;2023-05-24T04:31:53;12.10;99.90
36322;DHT22;23564;48.290;11.460;2023-05-24T04:34:20;12.00;99.90
36322;DHT22;23564;48.290;11.460;2023-05-24T04:36:46;11.80;99.90
36322;DHT22;23564;48.290;11.460;2023-05-24T04:39:13;11.70;99.90
36322;DHT22;23564;48.290;11.460;2023-05-24T04:41:40;11.70;99.90
36322;DHT22;23564;48.290;11.460;2023-05-24T04:44:05;11.80;99.90
36322;DHT22;23564;48.290;11.460;2023-05-24T04:46:31;11.80;99.90
36322;DHT22;23564;48.290;11.460;2023-05-24T04:49:00;11.80;99.90
36322;DHT22;23564;48.290;11.460;2023-05-24T04:51:26;11.80;99.90
36322;DHT22;23564;48.290;11.460;2023-05-24T04:53:52;11.90;99.90
36322;DHT22;23564;48.290;11.460;2023-05-24T04:56:17;12.00;99.90
36322;DHT22;23564;48.290;11.460;2023-05-24T04:58:44;12.00;99.90
36322;DHT22;23564;48.290;11.460;2023-05-24T05:01:09;12.10;99.90
36322;DHT22;23564;48.290;11.460;2023-05-24T05:03:35;12.10;99.90
36322;DHT22;23564;48.290;11.460;2023-05-24T05:06:01;12.00;99.90
36322;DHT22;23564;48.290;11.460;2023-05-24T05:08:26;12.00;99.90
36322;DHT22;23564;48.290;11.460;2023-05-24T05:10:52;11.90;99.90
36322;DHT22;23564;48.290;11.460;2023-05-24T05:13:17;12.00;99.90
36322;DHT22;23564;48.290;11.460;2023-05-24T05:15:43;12.00;99.90
36322;DHT22;23564;48.290;11.460;2023-05-24T05:18:09;12.00;99.90
36322;DHT22;23564;48.290;11.460;2023-05-24T05:20:34;12.10;99.90
36322;DHT22;23564;48.290;11.460;2023-05-24T05:23:00;12.30;99.90
36322;DHT22;23564;48.290;11.460;2023-05-24T05:25:25;12.40;99.90
36322;DHT22;23564;48.290;11.460;2023-05-24T05:27:51;12.50;99.90
36322;DHT22;23564;48.290;11.460;2023-05-24T05:30:17;12.60;99.90
36322;DHT22;23564;48.290;11.460;2023-05-24T05:32:42;12.80;99.90
36322;DHT22;23564;48.290;11.460;2023-05-24T05:35:08;12.90;1.00
36322;DHT22;23564;48.290;11.460;2023-05-24T05:37:33;12.90;75.20
36322;DHT22;23564;48.290;11.460;2023-05-24T05:39:59;13.10;65.10
36322;DHT22;23564;48.290;11.460;2023-05-24T05:42:25;13.20;1.00
36322;DHT22;23564;48.290;11.460;2023-05-24T05:44:50;13.20;99.90
36322;DHT22;23564;48.290;11.460;2023-05-24T05:47:16;13.20;99.90
36322;DHT22;23564;48.290;11.460;2023-05-24T05:49:42;13.30;99.90
36322;DHT22;23564;48.290;11.460;2023-05-24T05:52:08;13.30;1.00
36322;DHT22;23564;48.290;11.460;2023-05-24T05:54:33;13.30;99.90
36322;DHT22;23564;48.290;11.460;2023-05-24T05:56:59;13.60;99.90
36322;DHT22;23564;48.290;11.460;2023-05-24T05:59:24;13.70;1.00
36322;DHT22;23564;48.290;11.460;2023-05-24T06:01:50;13.60;99.90
36322;DHT22;23564;48.290;11.460;2023-05-24T06:04:17;13.60;1.00
36322;DHT22;23564;48.290;11.460;2023-05-24T06:06:42;13.50;1.00
36322;DHT22;23564;48.290;11.460;2023-05-24T06:09:09;13.50;99.90
36322;DHT22;23564;48.290;11.460;2023-05-24T06:11:35;13.70;77.20
36322;DHT22;23564;48.290;11.460;2023-05-24T06:14:01;13.70;99.90
36322;DHT22;23564;48.290;11.460;2023-05-24T06:16:27;13.70;99.90
36322;DHT22;23564;48.290;11.460;2023-05-24T06:18:53;13.70;99.90
36322;DHT22;23564;48.290;11.460;2023-05-24T06:21:19;13.80;99.90
36322;DHT22;23564;48.290;11.460;2023-05-24T06:23:44;14.10;99.90
36322;DHT22;23564;48.290;11.460;2023-05-24T06:26:10;14.10;1.00
36322;DHT22;23564;48.290;11.460;2023-05-24T06:28:36;14.30;10.50
36322;DHT22;23564;48.290;11.460;2023-05-24T06:31:03;14.30;99.90
36322;DHT22;23564;48.290;11.460;2023-05-24T06:33:28;14.30;58.40
36322;DHT22;23564;48.290;11.460;2023-05-24T06:35:54;14.00;99.90
36322;DHT22;23564;48.290;11.460;2023-05-24T06:38:20;13.90;99.90
36322;DHT22;23564;48.290;11.460;2023-05-24T06:40:45;13.90;1.00
36322;DHT22;23564;48.290;11.460;2023-05-24T06:43:11;13.90;1.00
36322;DHT22;23564;48.290;11.460;2023-05-24T06:45:37;13.90;54.80
36322;DHT22;23564;48.290;11.460;2023-05-24T06:48:02;14.10;1.00
36322;DHT22;23564;48.290;11.460;2023-05-24T06:50:28;14.20;93.10
36322;DHT22;23564;48.290;11.460;2023-05-24T06:52:53;14.10;99.90
36322;DHT22;23564;48.290;11.460;2023-05-24T06:55:19;14.10;24.20
36322;DHT22;23564;48.290;11.460;2023-05-24T06:57:45;14.20;99.90
36322;DHT22;23564;48.290;11.460;2023-05-24T07:00:11;14.20;1.00
36322;DHT22;23564;48.290;11.460;2023-05-24T07:02:38;14.20;6.90
36322;DHT22;23564;48.290;11.460;2023-05-24T07:05:05;14.20;1.00
36322;DHT22;23564;48.290;11.460;2023-05-24T07:07:30;14.10;1.00
36322;DHT22;23564;48.290;11.460;2023-05-24T07:09:56;14.10;99.90
36322;DHT22;23564;48.290;11.460;2023-05-24T07:12:22;14.20;1.00
36322;DHT22;23564;48.290;11.460;2023-05-24T07:14:48;14.30;79.60
36322;DHT22;23564;48.290;11.460;2023-05-24T07:17:13;14.40;1.00
36322;DHT22;23564;48.290;11.460;2023-05-24T07:19:39;14.40;99.90
36322;DHT22;23564;48.290;11.460;2023-05-24T07:22:06;14.40;99.90
36322;DHT22;23564;48.290;11.460;2023-05-24T07:24:31;14.60;1.00
36322;DHT22;23564;48.290;11.460;2023-05-24T07:26:57;14.60;99.90
36322;DHT22;23564;48.290;11.460;2023-05-24T07:29:23;14.60;99.90
36322;DHT22;23564;48.290;11.460;2023-05-24T07:31:48;14.70;99.90
36322;DHT22;23564;48.290;11.460;2023-05-24T07:34:14;14.80;99.80
36322;DHT22;23564;48.290;11.460;2023-05-24T07:36:40;15.00;24.30
36322;DHT22;23564;48.290;11.460;2023-05-24T07:39:07;14.90;99.90
36322;DHT22;23564;48.290;11.460;2023-05-24T07:41:34;14.80;1.00
36322;DHT22;23564;48.290;11.460;2023-05-24T07:44:00;14.80;99.90
36322;DHT22;23564;48.290;11.460;2023-05-24T07:46:26;14.80;99.90
36322;DHT22;23564;48.290;11.460;2023-05-24T07:48:52;14.80;99.90
36322;DHT22;23564;48.290;11.460;2023-05-24T07:51:17;14.90;99.90
36322;DHT22;23564;48.290;11.460;2023-05-24T07:53:43;15.20;1.00
36322;DHT22;23564;48.290;11.460;2023-05-24T07:56:08;15.40;99.90
36322;DHT22;23564;48.290;11.460;2023-05-24T07:58:34;15.30;99.90
36322;DHT22;23564;48.290;11.460;2023-05-24T08:01:00;15.20;99.90
36322;DHT22;23564;48.290;11.460;2023-05-24T08:03:25;15.10;99.90
36322;DHT22;23564;48.290;11.460;2023-05-24T08:05:51;15.20;99.90
36322;DHT22;23564;48.290;11.460;2023-05-24T08:08:17;15.40;99.90
36322;DHT22;23564;48.290;11.460;2023-05-24T08:10:43;15.40;99.90
36322;DHT22;23564;48.290;11.460;2023-05-24T08:13:09;15.60;99.90
36322;DHT22;23564;48.290;11.460;2023-05-24T08:15:35;15.60;99.90
36322;DHT22;23564;48.290;11.460;2023-05-24T08:18:01;15.70;99.90
36322;DHT22;23564;48.290;11.460;2023-05-24T08:20:27;15.80;99.90
36322;DHT22;23564;48.290;11.460;2023-05-24T08:22:53;15.90;99.90
36322;DHT22;23564;48.290;11.460;2023-05-24T08:25:19;15.90;99.90
36322;DHT22;23564;48.290;11.460;2023-05-24T08:27:45;16.00;90.00
36322;DHT22;23564;48.290;11.460;2023-05-24T08:30:11;16.00;99.90
36322;DHT22;23564;48.290;11.460;2023-05-24T08:32:38;16.30;99.90
36322;DHT22;23564;48.290;11.460;2023-05-24T08:35:04;16.40;20.30
36322;DHT22;23564;48.290;11.460;2023-05-24T08:37:30;16.30;1.00
36322;DHT22;23564;48.290;11.460;2023-05-24T08:39:57;16.10;1.00
36322;DHT22;23564;48.290;11.460;2023-05-24T08:42:24;16.10;23.00
36322;DHT22;23564;48.290;11.460;2023-05-24T08:44:58;16.50;2.90
36322;DHT22;23564;48.290;11.460;2023-05-24T08:47:28;16.50;99.90
36322;DHT22;23564;48.290;11.460;2023-05-24T08:49:55;16.60;99.90
36322;DHT22;23564;48.290;11.460;2023-05-24T08:52:22;16.60;99.90
36322;DHT22;23564;48.290;11.460;2023-05-24T08:54:48;16.80;99.90
36322;DHT22;23564;48.290;11.460;2023-05-24T08:57:15;16.80;1.00
36322;DHT22;23564;48.290;11.460;2023-05-24T08:59:41;16.60;1.00
36322;DHT22;23564;48.290;11.460;2023-05-24T09:02:10;16.40;1.00
36322;DHT22;23564;48.290;11.460;2023-05-24T09:04:38;16.30;47.60
36322;DHT22;23564;48.290;11.460;2023-05-24T09:07:06;16.40;99.90
36322;DHT22;23564;48.290;11.460;2023-05-24T09:09:34;16.30;1.00
36322;DHT22;23564;48.290;11.460;2023-05-24T09:12:03;16.10;33.70
36322;DHT22;23564;48.290;11.460;2023-05-24T09:14:29;16.10;29.30
36322;DHT22;23564;48.290;11.460;2023-05-24T09:16:56;16.10;22.80
36322;DHT22;23564;48.290;11.460;2023-05-24T09:19:22;15.90;1.00
36322;DHT22;23564;48.290;11.460;2023-05-24T09:21:48;15.70;1.00
36322;DHT22;23564;48.290;11.460;2023-05-24T09:24:14;15.70;1.00
36322;DHT22;23564;48.290;11.460;2023-05-24T09:26:40;15.80;1.00
36322;DHT22;23564;48.290;11.460;2023-05-24T09:29:07;15.90;1.00
36322;DHT22;23564;48.290;11.460;2023-05-24T09:31:33;15.70;1.00
36322;DHT22;23564;48.290;11.460;2023-05-24T09:33:59;15.70;1.00
36322;DHT22;23564;48.290;11.460;2023-05-24T09:36:26;15.80;1.00
36322;DHT22;23564;48.290;11.460;2023-05-24T09:39:10;15.80;99.90
36322;DHT22;23564;48.290;11.460;2023-05-24T09:41:36;15.80;49.60
36322;DHT22;23564;48.290;11.460;2023-05-24T09:44:02;15.70;4.00
36322;DHT22;23564;48.290;11.460;2023-05-24T09:46:28;15.50;64.90
36322;DHT22;23564;48.290;11.460;2023-05-24T09:49:00;15.40;20.60
36322;DHT22;23564;48.290;11.460;2023-05-24T09:51:31;15.10;57.30
36322;DHT22;23564;48.290;11.460;2023-05-24T09:53:59;15.10;66.90
36322;DHT22;23564;48.290;11.460;2023-05-24T09:56:25;15.10;80.70
36322;DHT22;23564;48.290;11.460;2023-05-24T09:58:51;15.20;99.90
36322;DHT22;23564;48.290;11.460;2023-05-24T10:01:21;15.30;95.40
36322;DHT22;23564;48.290;11.460;2023-05-24T10:03:56;15.50;58.20
36322;DHT22;23564;48.290;11.460;2023-05-24T10:06:22;15.40;16.90
36322;DHT22;23564;48.290;11.460;2023-05-24T10:08:49;15.50;51.00
36322;DHT22;23564;48.290;11.460;2023-05-24T10:11:17;15.40;48.50
36322;DHT22;23564;48.290;11.460;2023-05-24T10:13:43;15.40;2.20
36322;DHT22;23564;48.290;11.460;2023-05-24T10:16:09;15.40;91.80
36322;DHT22;23564;48.290;11.460;2023-05-24T10:18:34;15.10;52.20
36322;DHT22;23564;48.290;11.460;2023-05-24T10:21:01;15.00;51.50
36322;DHT22;23564;48.290;11.460;2023-05-24T10:23:33;15.10;73.90
36322;DHT22;23564;48.290;11.460;2023-05-24T10:26:05;15.30;65.20
36322;DHT22;23564;48.290;11.460;2023-05-24T10:28:34;15.40;20.60
36322;DHT22;23564;48.290;11.460;2023-05-24T10:31:11;15.40;1.00
36322;DHT22;23564;48.290;11.460;2023-05-24T10:33:41;15.50;20.20
36322;DHT22;23564;48.290;11.460;2023-05-24T10:36:09;15.80;30.10
36322;DHT22;23564;48.290;11.460;2023-05-24T10:38:39;15.90;51.80
36322;DHT22;23564;48.290;11.460;2023-05-24T10:41:06;16.10;24.20
36322;DHT22;23564;48.290;11.460;2023-05-24T10:43:34;16.00;12.90
36322;DHT22;23564;48.290;11.460;2023-05-24T10:46:02;16.00;1.00
36322;DHT22;23564;48.290;11.460;2023-05-24T10:50:54;15.90;1.00
36322;DHT22;23564;48.290;11.460;2023-05-24T10:53:25;15.90;1.00
36322;DHT22;23564;48.290;11.460;2023-05-24T10:56:02;15.90;1.00
36322;DHT22;23564;48.290;11.460;2023-05-24T10:59:10;15.60;1.00
36322;DHT22;23564;48.290;11.460;2023-05-24T11:01:31;15.50;1.00
36322;DHT22;23564;48.290;11.460;2023-05-24T11:04:17;15.50;99.90
36322;DHT22;23564;48.290;11.460;2023-05-24T11:06:54;15.70;1.00
36322;DHT22;23564;48.290;11.460;2023-05-24T11:09:21;16.10;1.00
36322;DHT22;23564;48.290;11.460;2023-05-24T11:11:48;16.00;1.00
36322;DHT22;23564;48.290;11.460;2023-05-24T11:14:19;16.20;1.00
36322;DHT22;23564;48.290;11.460;2023-05-24T11:16:45;16.20;1.00
36322;DHT22;23564;48.290;11.460;2023-05-24T11:19:19;16.20;1.00
36322;DHT22;23564;48.290;11.460;2023-05-24T11:21:47;16.00;99.90
36322;DHT22;23564;48.290;11.460;2023-05-24T11:24:16;15.90;99.90
36322;DHT22;23564;48.290;11.460;2023-05-24T11:26:43;16.00;99.90
36322;DHT22;23564;48.290;11.460;2023-05-24T11:29:11;16.10;99.90
36322;DHT22;23564;48.290;11.460;2023-05-24T11:31:37;16.30;99.90
36322;DHT22;23564;48.290;11.460;2023-05-24T11:34:05;16.50;99.90
36322;DHT22;23564;48.290;11.460;2023-05-24T11:36:31;16.30;99.90
36322;DHT22;23564;48.290;11.460;2023-05-24T11:38:57;16.30;99.90
36322;DHT22;23564;48.290;11.460;2023-05-24T11:41:23;16.40;99.90
36322;DHT22;23564;48.290;11.460;2023-05-24T11:43:49;16.50;99.90
36322;DHT22;23564;48.290;11.460;2023-05-24T11:46:15;16.40;99.90
36322;DHT22;23564;48.290;11.460;2023-05-24T11:48:52;16.50;99.90
36322;DHT22;23564;48.290;11.460;2023-05-24T11:51:18;16.50;99.90
36322;DHT22;23564;48.290;11.460;2023-05-24T11:53:44;16.70;99.90
36322;DHT22;23564;48.290;11.460;2023-05-24T11:56:10;16.70;99.90
36322;DHT22;23564;48.290;11.460;2023-05-24T11:58:48;16.60;99.90
36322;DHT22;23564;48.290;11.460;2023-05-24T12:01:25;16.70;99.90
36322;DHT22;23564;48.290;11.460;2023-05-24T12:03:52;16.90;99.90
36322;DHT22;23564;48.290;11.460;2023-05-24T12:06:19;16.90;99.90
36322;DHT22;23564;48.290;11.460;2023-05-24T12:08:46;16.80;99.90
36322;DHT22;23564;48.290;11.460;2023-05-24T12:11:11;16.80;99.90
36322;DHT22;23564;48.290;11.460;2023-05-24T12:13:38;16.80;99.90
36322;DHT22;23564;48.290;11.460;2023-05-24T12:16:05;17.00;99.90
36322;DHT22;23564;48.290;11.460;2023-05-24T12:18:31;16.90;99.90
36322;DHT22;23564;48.290;11.460;2023-05-24T12:20:57;16.70;99.90
36322;DHT22;23564;48.290;11.460;2023-05-24T12:23:25;16.80;94.40
36322;DHT22;23564;48.290;11.460;2023-05-24T12:26:00;16.70;54.50
36322;DHT22;23564;48.290;11.460;2023-05-24T12:28:26;16.40;72.70
36322;DHT22;23564;48.290;11.460;2023-05-24T12:30:52;16.50;99.90
36322;DHT22;23564;48.290;11.460;2023-05-24T12:33:19;16.60;99.90
36322;DHT22;23564;48.290;11.460;2023-05-24T12:35:46;16.60;73.90
36322;DHT22;23564;48.290;11.460;2023-05-24T12:38:12;16.30;65.40
36322;DHT22;23564;48.290;11.460;2023-05-24T12:40:41;16.20;34.60
36322;DHT22;23564;48.290;11.460;2023-05-24T12:43:08;16.20;32.00
36322;DHT22;23564;48.290;11.460;2023-05-24T12:45:34;16.30;42.10
36322;DHT22;23564;48.290;11.460;2023-05-24T12:48:01;16.40;28.20
36322;DHT22;23564;48.290;11.460;2023-05-24T12:50:29;16.50;47.50
36322;DHT22;23564;48.290;11.460;2023-05-24T12:52:55;16.70;71.70
36322;DHT22;23564;48.290;11.460;2023-05-24T12:55:24;16.90;99.90
36322;DHT22;23564;48.290;11.460;2023-05-24T12:57:51;17.00;60.20
36322;DHT22;23564;48.290;11.460;2023-05-24T13:00:22;17.00;26.50
36322;DHT22;23564;48.290;11.460;2023-05-24T13:02:48;17.10;23.30
36322;DHT22;23564;48.290;11.460;2023-05-24T13:05:14;17.30;25.10
36322;DHT22;23564;48.290;11.460;2023-05-24T13:07:42;17.40;1.00
36322;DHT22;23564;48.290;11.460;2023-05-24T13:10:09;17.10;1.00
36322;DHT22;23564;48.290;11.460;2023-05-24T13:12:34;17.10;1.00
36322;DHT22;23564;48.290;11.460;2023-05-24T13:15:01;17.00;1.00
36322;DHT22;23564;48.290;11.460;2023-05-24T13:17:27;17.10;1.00
36322;DHT22;23564;48.290;11.460;2023-05-24T13:19:52;16.90;1.00
36322;DHT22;23564;48.290;11.460;2023-05-24T13:22:19;16.70;1.00
36322;DHT22;23564;48.290;11.460;2023-05-24T13:24:44;16.80;1.00
36322;DHT22;23564;48.290;11.460;2023-05-24T13:27:11;16.80;1.00
36322;DHT22;23564;48.290;11.460;2023-05-24T13:29:36;16.80;1.00
36322;DHT22;23564;48.290;11.460;2023-05-24T13:32:02;16.80;1.00
36322;DHT22;23564;48.290;11.460;2023-05-24T13:34:27;17.10;1.00
36322;DHT22;23564;48.290;11.460;2023-05-24T13:36:53;17.20;1.00
36322;DHT22;23564;48.290;11.460;2023-05-24T13:39:20;17.30;1.00
36322;DHT22;23564;48.290;11.460;2023-05-24T13:41:46;17.20;1.00
36322;DHT22;23564;48.290;11.460;2023-05-24T13:44:12;17.20;1.00
36322;DHT22;23564;48.290;11.460;2023-05-24T13:46:38;17.30;1.00
36322;DHT22;23564;48.290;11.460;2023-05-24T13:49:05;17.30;1.00
36322;DHT22;23564;48.290;11.460;2023-05-24T13:51:31;17.10;1.00
36322;DHT22;23564;48.290;11.460;2023-05-24T13:53:57;16.80;1.00
36322;DHT22;23564;48.290;11.460;2023-05-24T13:56:23;16.70;1.00
36322;DHT22;23564;48.290;11.460;2023-05-24T13:58:49;16.70;1.00
36322;DHT22;23564;48.290;11.460;2023-05-24T14:01:15;16.90;1.00
36322;DHT22;23564;48.290;11.460;2023-05-24T14:03:41;17.00;1.00
36322;DHT22;23564;48.290;11.460;2023-05-24T14:06:07;17.00;1.00
36322;DHT22;23564;48.290;11.460;2023-05-24T14:08:33;17.00;1.00
36322;DHT22;23564;48.290;11.460;2023-05-24T14:10:59;17.00;1.00
36322;DHT22;23564;48.290;11.460;2023-05-24T14:13:24;16.80;1.00
36322;DHT22;23564;48.290;11.460;2023-05-24T14:15:50;16.90;1.00
36322;DHT22;23564;48.290;11.460;2023-05-24T14:18:16;16.90;1.00
36322;DHT22;23564;48.290;11.460;2023-05-24T14:20:42;16.90;1.00
36322;DHT22;23564;48.290;11.460;2023-05-24T14:23:08;17.00;1.00
36322;DHT22;23564;48.290;11.460;2023-05-24T14:25:34;17.10;1.00
36322;DHT22;23564;48.290;11.460;2023-05-24T14:28:00;17.20;1.00
36322;DHT22;23564;48.290;11.460;2023-05-24T14:30:26;17.40;1.00
36322;DHT22;23564;48.290;11.460;2023-05-24T14:32:51;17.70;1.00
36322;DHT22;23564;48.290;11.460;2023-05-24T14:35:17;17.50;1.00
36322;DHT22;23564;48.290;11.460;2023-05-24T14:37:42;17.60;1.00
36322;DHT22;23564;48.290;11.460;2023-05-24T14:40:08;17.70;1.00
36322;DHT22;23564;48.290;11.460;2023-05-24T14:42:34;17.80;1.00
36322;DHT22;23564;48.290;11.460;2023-05-24T14:45:00;17.50;1.00
36322;DHT22;23564;48.290;11.460;2023-05-24T14:47:26;17.40;1.00
36322;DHT22;23564;48.290;11.460;2023-05-24T14:49:52;17.40;1.00
36322;DHT22;23564;48.290;11.460;2023-05-24T14:52:18;17.80;1.00
36322;DHT22;23564;48.290;11.460;2023-05-24T14:54:44;18.20;1.00
36322;DHT22;23564;48.290;11.460;2023-05-24T14:57:10;18.60;1.00
36322;DHT22;23564;48.290;11.460;2023-05-24T14:59:36;18.50;1.00
36322;DHT22;23564;48.290;11.460;2023-05-24T15:02:02;18.70;1.00
36322;DHT22;23564;48.290;11.460;2023-05-24T15:04:27;18.90;1.00
36322;DHT22;23564;48.290;11.460;2023-05-24T15:06:54;19.00;1.00
36322;DHT22;23564;48.290;11.460;2023-05-24T15:09:19;18.90;1.00
36322;DHT22;23564;48.290;11.460;2023-05-24T15:11:45;19.00;1.00
36322;DHT22;23564;48.290;11.460;2023-05-24T15:14:11;19.10;1.00
36322;DHT22;23564;48.290;11.460;2023-05-24T15:16:36;18.90;1.00
36322;DHT22;23564;48.290;11.460;2023-05-24T15:19:02;18.90;1.00
36322;DHT22;23564;48.290;11.460;2023-05-24T15:21:28;18.90;1.00
36322;DHT22;23564;48.290;11.460;2023-05-24T15:23:53;19.00;1.00
36322;DHT22;23564;48.290;11.460;2023-05-24T15:26:19;19.40;1.00
36322;DHT22;23564;48.290;11.460;2023-05-24T15:28:45;19.60;99.90